createdAt,value
2022-12-15T00:02:33.047Z,-1.28
2022-12-15T00:04:59.617Z,-1.33
2022-12-15T00:07:26.001Z,-1.33
2022-12-15T00:09:52.499Z,-1.32
2022-12-15T00:12:19.001Z,-1.32
2022-12-15T00:14:45.509Z,-1.33
2022-12-15T00:17:11.961Z,-1.32
2022-12-15T00:19:38.373Z,-1.31
2022-12-15T00:22:05.779Z,-1.30
2022-12-15T00:24:32.327Z,-1.28
2022-12-15T00:26:58.751Z,-1.26
2022-12-15T00:29:25.194Z,-1.26
2022-12-15T00:31:51.735Z,-1.26
2022-12-15T00:34:18.457Z,-1.24
2022-12-15T00:36:44.829Z,-1.23
2022-12-15T00:39:16.380Z,-1.22
2022-12-15T00:41:42.917Z,-1.23
2022-12-15T00:44:09.344Z,-1.24
2022-12-15T00:46:35.819Z,-1.24
2022-12-15T00:49:02.360Z,-1.25
2022-12-15T00:51:28.872Z,-1.26
2022-12-15T00:53:55.411Z,-1.27
2022-12-15T00:56:21.864Z,-1.27
2022-12-15T00:58:48.335Z,-1.26
2022-12-15T01:01:14.748Z,-1.25
2022-12-15T01:03:41.488Z,-1.25
2022-12-15T01:06:11.073Z,-1.26
2022-12-15T01:08:37.509Z,-1.25
2022-12-15T01:11:03.942Z,-1.24
2022-12-15T01:13:30.634Z,-1.24
2022-12-15T01:15:57.365Z,-1.22
2022-12-15T01:18:25.015Z,-1.22
2022-12-15T01:21:02.549Z,-1.21
2022-12-15T01:23:30.814Z,-1.20
2022-12-15T01:25:58.064Z,-1.20
2022-12-15T01:28:24.922Z,-1.21
2022-12-15T01:30:51.661Z,-1.23
2022-12-15T01:33:19.504Z,-1.25
2022-12-15T01:35:55.500Z,-1.25
2022-12-15T01:38:22.223Z,-1.23
2022-12-15T01:40:55.110Z,-1.23
2022-12-15T01:43:25.264Z,-1.23
2022-12-15T01:46:04.219Z,-1.24
2022-12-15T01:48:40.432Z,-1.29
2022-12-15T01:51:18.758Z,-1.31
2022-12-15T01:54:10.649Z,-1.33
2022-12-15T01:56:43.760Z,-1.37
2022-12-15T01:59:14.731Z,-1.39
2022-12-15T02:01:41.366Z,-1.40
2022-12-15T02:04:09.070Z,-1.43
2022-12-15T02:06:36.267Z,-1.47
2022-12-15T02:09:03.964Z,-1.51
2022-12-15T02:11:42.436Z,-1.51
2022-12-15T02:14:11.617Z,-1.50
2022-12-15T02:17:18.787Z,-1.48
2022-12-15T02:20:10.413Z,-1.46
2022-12-15T02:23:03.580Z,-1.46
2022-12-15T02:25:55.035Z,-1.49
2022-12-15T02:28:46.428Z,-1.52
2022-12-15T02:31:35.231Z,-1.55
2022-12-15T02:34:16.997Z,-1.58
2022-12-15T02:36:45.045Z,-1.60
2022-12-15T02:39:12.761Z,-1.60
2022-12-15T02:41:43.639Z,-1.62
2022-12-15T02:44:12.163Z,-1.61
2022-12-15T02:46:59.819Z,-1.59
2022-12-15T02:49:53.987Z,-1.60
2022-12-15T02:52:23.813Z,-1.64
2022-12-15T02:55:28.032Z,-1.65
2022-12-15T02:58:02.561Z,-1.68
2022-12-15T03:00:33.507Z,-1.71
2022-12-15T03:03:00.659Z,-1.72
2022-12-15T03:05:27.916Z,-1.72
2022-12-15T03:07:54.762Z,-1.70
2022-12-15T03:10:24.429Z,-1.70
2022-12-15T03:12:52.043Z,-1.71
2022-12-15T03:15:19.410Z,-1.71
2022-12-15T03:17:46.045Z,-1.70
2022-12-15T03:20:14.519Z,-1.72
2022-12-15T03:23:07.479Z,-1.75
2022-12-15T03:25:34.352Z,-1.76
2022-12-15T03:28:00.994Z,-1.77
2022-12-15T03:30:27.643Z,-1.78
2022-12-15T03:32:54.484Z,-1.79
2022-12-15T03:35:21.129Z,-1.80
2022-12-15T03:37:47.671Z,-1.79
2022-12-15T03:40:16.470Z,-1.76
2022-12-15T03:42:45.162Z,-1.72
2022-12-15T03:45:11.705Z,-1.70
2022-12-15T03:47:41.526Z,-1.67
2022-12-15T03:50:08.960Z,-1.65
2022-12-15T03:52:35.462Z,-1.64
2022-12-15T03:55:02.723Z,-1.65
2022-12-15T03:57:29.105Z,-1.66
2022-12-15T03:59:55.566Z,-1.65
2022-12-15T04:02:22.185Z,-1.63
2022-12-15T04:04:48.854Z,-1.63
2022-12-15T04:07:15.352Z,-1.63
2022-12-15T04:09:42.041Z,-1.63
2022-12-15T04:12:11.144Z,-1.60
2022-12-15T04:14:43.038Z,-1.58
2022-12-15T04:17:11.080Z,-1.57
2022-12-15T04:19:38.240Z,-1.55
2022-12-15T04:22:04.884Z,-1.53
2022-12-15T04:24:31.429Z,-1.51
2022-12-15T04:26:57.971Z,-1.51
2022-12-15T04:29:24.618Z,-1.51
2022-12-15T04:31:51.364Z,-1.53
2022-12-15T04:34:21.650Z,-1.54
2022-12-15T04:36:51.633Z,-1.54
2022-12-15T04:39:18.364Z,-1.54
2022-12-15T04:41:45.090Z,-1.55
2022-12-15T04:44:12.118Z,-1.57
2022-12-15T04:46:38.647Z,-1.61
2022-12-15T04:49:05.179Z,-1.67
2022-12-15T04:51:33.936Z,-1.71
2022-12-15T04:54:00.326Z,-1.72
2022-12-15T04:56:26.819Z,-1.70
2022-12-15T04:58:53.255Z,-1.68
2022-12-15T05:01:19.787Z,-1.68
2022-12-15T05:03:46.332Z,-1.67
2022-12-15T05:06:12.770Z,-1.65
2022-12-15T05:08:39.178Z,-1.62
2022-12-15T05:11:06.253Z,-1.59
2022-12-15T05:13:33.030Z,-1.58
2022-12-15T05:15:59.708Z,-1.59
2022-12-15T05:18:26.156Z,-1.60
2022-12-15T05:20:52.642Z,-1.58
2022-12-15T05:23:19.184Z,-1.56
2022-12-15T05:25:45.609Z,-1.54
2022-12-15T05:28:12.168Z,-1.53
2022-12-15T05:30:38.745Z,-1.51
2022-12-15T05:33:05.778Z,-1.52
2022-12-15T05:35:32.208Z,-1.53
2022-12-15T05:37:58.594Z,-1.52
2022-12-15T05:40:24.978Z,-1.51
2022-12-15T05:42:51.517Z,-1.52
2022-12-15T05:45:17.945Z,-1.53
2022-12-15T05:47:44.391Z,-1.55
2022-12-15T05:50:10.933Z,-1.56
2022-12-15T05:52:37.377Z,-1.56
2022-12-15T05:55:03.960Z,-1.56
2022-12-15T05:57:30.451Z,-1.55
2022-12-15T05:59:56.861Z,-1.53
2022-12-15T06:02:23.383Z,-1.55
2022-12-15T06:04:50.015Z,-1.56
2022-12-15T06:07:16.493Z,-1.60
2022-12-15T06:09:42.889Z,-1.63
2022-12-15T06:12:09.393Z,-1.62
2022-12-15T06:14:35.787Z,-1.61
2022-12-15T06:17:02.549Z,-1.61
2022-12-15T06:19:29.343Z,-1.60
2022-12-15T06:21:55.878Z,-1.57
2022-12-15T06:24:22.286Z,-1.56
2022-12-15T06:26:49.633Z,-1.57
2022-12-15T06:29:16.414Z,-1.58
2022-12-15T06:31:43.088Z,-1.59
2022-12-15T06:34:14.691Z,-1.58
2022-12-15T06:36:41.578Z,-1.60
2022-12-15T06:39:11.405Z,-1.59
2022-12-15T06:41:38.230Z,-1.56
2022-12-15T06:44:05.475Z,-1.53
2022-12-15T06:46:33.634Z,-1.50
2022-12-15T06:49:00.822Z,-1.47
2022-12-15T06:51:28.113Z,-1.44
2022-12-15T06:53:54.703Z,-1.40
2022-12-15T06:56:32.458Z,-1.37
2022-12-15T06:59:05.903Z,-1.33
2022-12-15T07:01:33.583Z,-1.34
2022-12-15T07:04:00.926Z,-1.34
2022-12-15T07:06:31.909Z,-1.34
2022-12-15T07:08:58.395Z,-1.34
2022-12-15T07:11:24.788Z,-1.32
2022-12-15T07:13:54.639Z,-1.31
2022-12-15T07:16:22.828Z,-1.29
2022-12-15T07:18:49.711Z,-1.30
2022-12-15T07:21:17.199Z,-1.34
2022-12-15T07:23:54.868Z,-1.38
2022-12-15T07:26:23.208Z,-1.36
2022-12-15T07:28:49.934Z,-1.33
2022-12-15T07:31:16.551Z,-1.29
2022-12-15T07:33:43.194Z,-1.24
2022-12-15T07:36:10.061Z,-1.20
2022-12-15T07:38:36.714Z,-1.17
2022-12-15T07:41:05.220Z,-1.13
2022-12-15T07:43:32.326Z,-1.07
2022-12-15T07:45:59.573Z,-0.96
2022-12-15T07:48:26.450Z,-0.86
2022-12-15T07:50:53.012Z,-0.76
2022-12-15T07:53:19.384Z,-0.65
2022-12-15T07:56:07.495Z,-0.54
2022-12-15T07:58:34.937Z,-0.41
2022-12-15T08:01:03.769Z,-0.33
2022-12-15T08:03:30.908Z,-0.21
2022-12-15T08:06:03.637Z,-0.10
2022-12-15T08:08:31.181Z,0.02
2022-12-15T08:10:58.029Z,0.12
2022-12-15T08:13:52.862Z,0.22
2022-12-15T08:16:11.962Z,0.27
2022-12-15T08:18:38.932Z,0.32
2022-12-15T08:21:07.015Z,0.37
2022-12-15T08:23:34.500Z,0.38
2022-12-15T08:26:05.278Z,0.33
2022-12-15T08:28:33.136Z,0.32
2022-12-15T08:31:07.748Z,0.41
2022-12-15T08:33:34.823Z,0.56
2022-12-15T08:36:05.242Z,0.64
2022-12-15T08:38:32.931Z,0.65
2022-12-15T08:41:13.405Z,0.63
2022-12-15T08:43:47.582Z,0.58
2022-12-15T08:46:34.409Z,0.52
2022-12-15T08:49:02.634Z,0.49
2022-12-15T08:51:31.198Z,0.60
2022-12-15T08:53:59.070Z,0.79
2022-12-15T08:56:26.428Z,1.01
2022-12-15T08:59:01.446Z,1.21
2022-12-15T09:01:30.768Z,1.31
2022-12-15T09:03:58.524Z,1.40
2022-12-15T09:06:31.229Z,1.59
2022-12-15T09:08:59.739Z,1.86
2022-12-15T09:11:26.975Z,2.01
2022-12-15T09:13:53.814Z,2.22
2022-12-15T09:16:21.369Z,2.55
2022-12-15T09:18:51.302Z,2.77
2022-12-15T09:21:19.742Z,2.77
2022-12-15T09:23:50.446Z,2.72
2022-12-15T09:26:17.343Z,2.84
2022-12-15T09:28:44.134Z,2.94
2022-12-15T09:31:20.407Z,2.87
2022-12-15T09:33:46.862Z,2.95
2022-12-15T09:36:13.485Z,3.02
2022-12-15T09:38:41.974Z,3.10
2022-12-15T09:41:14.858Z,3.17
2022-12-15T09:43:56.159Z,3.04
2022-12-15T09:46:45.007Z,2.85
2022-12-15T09:49:41.201Z,2.66
2022-12-15T09:52:14.249Z,2.62
2022-12-15T09:54:43.118Z,2.64
2022-12-15T09:57:36.035Z,2.65
2022-12-15T10:00:25.748Z,2.90
2022-12-15T10:03:23.564Z,3.14
2022-12-15T10:06:17.364Z,3.18
2022-12-15T10:09:02.872Z,3.38
2022-12-15T10:11:35.286Z,3.50
2022-12-15T10:14:01.725Z,3.40
2022-12-15T10:16:38.886Z,3.36
2022-12-15T10:19:19.663Z,3.24
2022-12-15T10:21:50.598Z,3.15
2022-12-15T10:24:44.455Z,2.96
2022-12-15T10:27:31.720Z,2.69
2022-12-15T10:30:04.385Z,2.59
2022-12-15T10:32:42.741Z,2.61
2022-12-15T10:35:18.605Z,2.64
2022-12-15T10:37:45.131Z,2.62
2022-12-15T10:40:18.546Z,2.52
2022-12-15T10:42:50.415Z,2.48
2022-12-15T10:45:49.432Z,2.58
2022-12-15T10:48:20.201Z,2.65
2022-12-15T10:50:46.672Z,2.73
2022-12-15T10:56:34.299Z,2.57
2022-12-15T10:59:20.986Z,2.49
2022-12-15T11:01:47.580Z,2.43
2022-12-15T11:04:28.834Z,2.33
2022-12-15T11:07:00.551Z,2.32
2022-12-15T11:09:29.037Z,2.30
2022-12-15T11:11:55.652Z,2.25
2022-12-15T11:14:28.465Z,2.14
2022-12-15T11:16:59.223Z,2.05
2022-12-15T11:19:33.257Z,1.92
2022-12-15T11:22:07.959Z,1.84
2022-12-15T11:24:49.956Z,1.78
2022-12-15T11:27:26.737Z,1.69
2022-12-15T11:30:16.934Z,1.62
2022-12-15T11:32:47.542Z,1.61
2022-12-15T11:35:19.905Z,1.56
2022-12-15T11:38:03.685Z,1.55
2022-12-15T11:40:39.905Z,1.51
2022-12-15T11:43:09.341Z,1.46
2022-12-15T11:46:00.729Z,1.40
2022-12-15T11:48:49.630Z,1.36
2022-12-15T11:51:44.924Z,1.33
2022-12-15T11:54:18.140Z,1.21
2022-12-15T11:56:52.864Z,1.11
2022-12-15T11:59:46.577Z,1.05
2022-12-15T12:02:32.067Z,0.97
2022-12-15T12:05:31.503Z,0.91
2022-12-15T12:08:10.110Z,0.85
2022-12-15T12:10:39.647Z,0.81
2022-12-15T12:13:35.101Z,0.78
2022-12-15T12:16:20.105Z,0.70
2022-12-15T12:18:56.633Z,0.65
2022-12-15T12:21:39.508Z,0.64
2022-12-15T12:24:29.828Z,0.69
2022-12-15T12:27:10.783Z,0.68
2022-12-15T12:29:51.290Z,0.67
2022-12-15T12:32:26.804Z,0.66
2022-12-15T12:35:31.498Z,0.69
2022-12-15T12:38:15.173Z,0.71
2022-12-15T12:40:59.332Z,0.71
2022-12-15T12:43:50.599Z,0.66
2022-12-15T12:46:25.086Z,0.61
2022-12-15T12:49:02.169Z,0.54
2022-12-15T12:51:40.053Z,0.50
2022-12-15T12:54:34.476Z,0.40
2022-12-15T12:57:02.721Z,0.25
2022-12-15T12:59:29.098Z,0.17
2022-12-15T13:01:57.303Z,0.08
2022-12-15T13:04:29.747Z,0.00
2022-12-15T13:07:03.020Z,-0.04
2022-12-15T13:09:43.005Z,-0.08
2022-12-15T13:12:51.071Z,-0.12
2022-12-15T13:15:27.522Z,-0.14
2022-12-15T13:18:15.919Z,-0.16
2022-12-15T13:20:44.454Z,-0.18
2022-12-15T13:23:20.092Z,-0.19
2022-12-15T13:26:06.773Z,-0.21
2022-12-15T13:28:36.004Z,-0.25
2022-12-15T13:31:18.186Z,-0.27
2022-12-15T13:34:01.354Z,-0.30
2022-12-15T13:36:36.934Z,-0.33
2022-12-15T13:39:12.528Z,-0.32
2022-12-15T13:42:00.301Z,-0.28
2022-12-15T13:44:32.699Z,-0.26
2022-12-15T13:47:09.392Z,-0.28
2022-12-15T13:49:53.287Z,-0.30
2022-12-15T13:52:44.298Z,-0.29
2022-12-15T13:55:27.253Z,-0.28
2022-12-15T13:57:58.687Z,-0.29
2022-12-15T14:00:25.228Z,-0.33
2022-12-15T14:02:52.031Z,-0.37
2022-12-15T14:05:23.051Z,-0.39
2022-12-15T14:07:54.782Z,-0.44
2022-12-15T14:10:29.512Z,-0.47
2022-12-15T14:12:58.313Z,-0.51
2022-12-15T14:15:30.781Z,-0.55
2022-12-15T14:18:00.285Z,-0.57
2022-12-15T14:20:30.800Z,-0.58
2022-12-15T14:22:57.799Z,-0.60
2022-12-15T14:25:28.923Z,-0.62
2022-12-15T14:27:56.599Z,-0.63
2022-12-15T14:30:27.654Z,-0.62
2022-12-15T14:33:01.053Z,-0.61
2022-12-15T14:35:37.632Z,-0.60
2022-12-15T14:38:11.448Z,-0.61
2022-12-15T14:40:39.865Z,-0.63
2022-12-15T14:43:17.835Z,-0.63
2022-12-15T14:45:44.414Z,-0.62
2022-12-15T14:48:40.472Z,-0.61
2022-12-15T14:51:10.432Z,-0.61
2022-12-15T14:53:40.231Z,-0.61
2022-12-15T14:56:32.795Z,-0.60
2022-12-15T14:59:03.201Z,-0.60
2022-12-15T15:01:57.748Z,-0.59
2022-12-15T15:03:11.249Z,2.71
2022-12-15T15:04:33.268Z,-0.59
2022-12-15T15:07:02.315Z,-0.59
2022-12-15T15:09:33.015Z,-0.61
2022-12-15T15:12:06.910Z,-0.62
2022-12-15T15:14:43.529Z,-0.64
2022-12-15T15:17:13.356Z,-0.65
2022-12-15T15:20:08.074Z,-0.66
2022-12-15T15:22:40.651Z,-0.71
2022-12-15T15:25:50.198Z,-0.74
2022-12-15T15:28:19.494Z,-0.76
2022-12-15T15:31:06.205Z,-0.76
2022-12-15T15:33:33.426Z,-0.80
2022-12-15T15:36:02.097Z,-0.81
2022-12-15T15:38:32.910Z,-0.82
2022-12-15T15:41:02.060Z,-0.85
2022-12-15T15:43:28.919Z,-0.86
2022-12-15T15:46:32.681Z,-0.88
2022-12-15T15:49:14.024Z,-0.91
2022-12-15T15:51:40.518Z,-0.94
2022-12-15T15:54:12.183Z,-0.95
2022-12-15T15:56:38.706Z,-0.97
2022-12-15T15:59:14.030Z,-0.97
2022-12-15T16:01:40.765Z,-0.99
2022-12-15T16:04:07.398Z,-1.02
2022-12-15T16:06:34.914Z,-1.05
2022-12-15T16:09:01.969Z,-1.07
2022-12-15T16:11:30.062Z,-1.07
2022-12-15T16:13:56.707Z,-1.09
2022-12-15T16:16:27.003Z,-1.12
2022-12-15T16:18:53.442Z,-1.16
2022-12-15T16:21:24.312Z,-1.19
2022-12-15T16:23:51.176Z,-1.20
2022-12-15T16:26:28.507Z,-1.18
2022-12-15T16:28:54.996Z,-1.16
2022-12-15T16:31:41.269Z,-1.14
2022-12-15T16:34:08.630Z,-1.12
2022-12-15T16:36:35.451Z,-1.11
2022-12-15T16:39:03.003Z,-1.10
2022-12-15T16:41:29.488Z,-1.08
2022-12-15T16:43:55.944Z,-1.08
2022-12-15T16:46:22.516Z,-1.08
2022-12-15T16:48:49.118Z,-1.07
2022-12-15T16:51:36.971Z,-1.05
2022-12-15T16:54:03.913Z,-1.03
2022-12-15T16:56:30.453Z,-1.03
2022-12-15T16:59:15.459Z,-1.02
2022-12-15T17:01:44.037Z,-1.01
2022-12-15T17:04:12.018Z,-1.03
2022-12-15T17:06:39.315Z,-1.03
2022-12-15T17:09:06.837Z,-1.04
2022-12-15T17:11:35.184Z,-1.06
2022-12-15T17:14:01.940Z,-1.06
2022-12-15T17:16:28.913Z,-1.07
2022-12-15T17:18:55.755Z,-1.08
2022-12-15T17:21:35.172Z,-1.07
2022-12-15T17:24:07.675Z,-1.08
2022-12-15T17:26:36.994Z,-1.06
2022-12-15T17:29:18.236Z,-1.04
2022-12-15T17:31:44.761Z,-1.03
2022-12-15T17:34:30.613Z,-1.02
2022-12-15T17:37:03.165Z,-1.03
2022-12-15T17:39:30.522Z,-1.04
2022-12-15T17:42:00.624Z,-1.06
2022-12-15T17:44:36.384Z,-1.07
2022-12-15T17:47:06.194Z,-1.08
2022-12-15T17:49:36.637Z,-1.09
2022-12-15T17:52:28.795Z,-1.10
2022-12-15T17:54:56.580Z,-1.09
2022-12-15T17:57:23.006Z,-1.09
2022-12-15T17:59:49.552Z,-1.08
2022-12-15T18:02:16.244Z,-1.06
2022-12-15T18:04:43.547Z,-1.06
2022-12-15T18:07:22.155Z,-1.07
2022-12-15T18:09:50.783Z,-1.08
2022-12-15T18:12:20.225Z,-1.08
2022-12-15T18:14:46.811Z,-1.09
2022-12-15T18:17:13.260Z,-1.08
2022-12-15T18:19:39.656Z,-1.07
2022-12-15T18:22:15.244Z,-1.06
2022-12-15T18:24:41.776Z,-1.05
2022-12-15T18:27:26.507Z,-1.05
2022-12-15T18:29:53.503Z,-1.04
2022-12-15T18:32:24.421Z,-1.05
2022-12-15T18:34:51.817Z,-1.06
2022-12-15T18:37:20.816Z,-1.04
2022-12-15T18:39:47.740Z,-1.03
2022-12-15T18:42:20.302Z,-1.00
2022-12-15T18:44:49.420Z,-0.95
2022-12-15T18:47:22.107Z,-0.92
2022-12-15T18:49:48.955Z,-0.86
2022-12-15T18:52:24.159Z,-0.84
2022-12-15T18:54:52.370Z,-0.85
2022-12-15T18:57:32.587Z,-0.84
2022-12-15T19:00:02.432Z,-0.82
2022-12-15T19:02:29.079Z,-0.81
2022-12-15T19:04:55.743Z,-0.82
2022-12-15T19:07:22.486Z,-0.84
2022-12-15T19:09:49.419Z,-0.86
2022-12-15T19:12:17.145Z,-0.88
2022-12-15T19:14:45.457Z,-0.89
2022-12-15T19:17:14.686Z,-0.89
2022-12-15T19:19:41.118Z,-0.90
2022-12-15T19:22:11.146Z,-0.92
2022-12-15T19:24:37.687Z,-0.96
2022-12-15T19:27:10.810Z,-1.00
2022-12-15T19:29:39.179Z,-1.02
2022-12-15T19:32:07.073Z,-1.02
2022-12-15T19:34:33.919Z,-1.02
2022-12-15T19:37:02.353Z,-1.01
2022-12-15T19:39:30.060Z,-0.98
2022-12-15T19:41:56.595Z,-0.95
2022-12-15T19:44:23.225Z,-0.94
2022-12-15T19:46:49.693Z,-0.94
2022-12-15T19:49:16.098Z,-0.92
2022-12-15T19:51:42.844Z,-0.90
2022-12-15T19:54:21.279Z,-0.88
2022-12-15T19:56:48.416Z,-0.88
2022-12-15T19:59:26.232Z,-0.88
2022-12-15T20:01:53.088Z,-0.87
2022-12-15T20:04:24.034Z,-0.86
2022-12-15T20:06:51.272Z,-0.86
2022-12-15T20:09:18.817Z,-0.84
2022-12-15T20:11:45.881Z,-0.83
2022-12-15T20:14:14.606Z,-0.81
2022-12-15T20:16:41.167Z,-0.79
2022-12-15T20:19:08.126Z,-0.76
2022-12-15T20:21:36.942Z,-0.74
2022-12-15T20:24:08.445Z,-0.75
2022-12-15T20:26:36.293Z,-0.78
2022-12-15T20:29:04.458Z,-0.80
2022-12-15T20:31:31.109Z,-0.85
2022-12-15T20:33:57.831Z,-0.90
2022-12-15T20:36:28.040Z,-0.93
2022-12-15T20:38:55.785Z,-0.94
2022-12-15T20:41:29.548Z,-0.95
2022-12-15T20:43:56.310Z,-0.96
2022-12-15T20:46:25.668Z,-0.96
2022-12-15T20:48:54.625Z,-0.96
2022-12-15T20:51:30.661Z,-0.95
2022-12-15T20:54:00.719Z,-0.94
2022-12-15T20:56:27.937Z,-0.93
2022-12-15T20:58:56.712Z,-0.92
2022-12-15T21:01:33.184Z,-0.91
2022-12-15T21:04:02.123Z,-0.94
2022-12-15T21:06:29.502Z,-0.97
2022-12-15T21:08:56.615Z,-1.01
2022-12-15T21:11:26.734Z,-1.00
2022-12-15T21:13:56.020Z,-0.97
2022-12-15T21:16:28.678Z,-0.94
2022-12-15T21:19:19.216Z,-0.93
2022-12-15T21:21:51.661Z,-0.92
2022-12-15T21:24:20.622Z,-0.93
2022-12-15T21:26:47.230Z,-0.94
2022-12-15T21:29:16.470Z,-0.95
2022-12-15T21:31:43.891Z,-0.98
2022-12-15T21:34:10.628Z,-1.00
2022-12-15T21:36:40.292Z,-1.02
2022-12-15T21:39:08.113Z,-1.06
2022-12-15T21:41:35.075Z,-1.08
2022-12-15T21:44:01.515Z,-1.10
2022-12-15T21:46:28.842Z,-1.11
2022-12-15T21:48:56.558Z,-1.09
2022-12-15T21:51:23.094Z,-1.08
2022-12-15T21:53:49.496Z,-1.10
2022-12-15T21:56:19.829Z,-1.14
2022-12-15T21:58:47.299Z,-1.20
2022-12-15T22:01:15.765Z,-1.25
2022-12-15T22:03:50.464Z,-1.29
2022-12-15T22:06:19.134Z,-1.34
2022-12-15T22:08:45.613Z,-1.40
2022-12-15T22:11:22.353Z,-1.44
2022-12-15T22:13:51.070Z,-1.47
2022-12-15T22:16:18.741Z,-1.48
2022-12-15T22:18:51.177Z,-1.46
2022-12-15T22:21:18.141Z,-1.42
2022-12-15T22:23:44.978Z,-1.37
2022-12-15T22:26:23.093Z,-1.35
2022-12-15T22:28:50.776Z,-1.34
2022-12-15T22:31:18.722Z,-1.31
2022-12-15T22:33:45.307Z,-1.31
2022-12-15T22:36:11.812Z,-1.30
2022-12-15T22:38:38.202Z,-1.29
2022-12-15T22:41:06.119Z,-1.28
2022-12-15T22:43:39.221Z,-1.26
2022-12-15T22:46:09.489Z,-1.23
2022-12-15T22:48:40.570Z,-1.22
2022-12-15T22:51:07.825Z,-1.19
2022-12-15T22:53:35.225Z,-1.19
2022-12-15T22:56:06.147Z,-1.18
2022-12-15T22:58:42.313Z,-1.21
2022-12-15T23:01:09.586Z,-1.21
2022-12-15T23:03:36.368Z,-1.20
2022-12-15T23:06:04.082Z,-1.21
2022-12-15T23:08:31.624Z,-1.22
2022-12-15T23:11:01.073Z,-1.22
2022-12-15T23:13:27.519Z,-1.25
2022-12-15T23:15:54.670Z,-1.25
2022-12-15T23:18:21.605Z,-1.24
2022-12-15T23:20:48.139Z,-1.21
2022-12-15T23:23:14.680Z,-1.19
2022-12-15T23:25:41.117Z,-1.18
2022-12-15T23:28:07.797Z,-1.14
2022-12-15T23:30:35.020Z,-1.11
2022-12-15T23:33:01.554Z,-1.08
2022-12-15T23:35:28.105Z,-1.07
2022-12-15T23:37:54.522Z,-1.05
2022-12-15T23:40:22.445Z,-1.04
2022-12-15T23:42:52.276Z,-1.03
2022-12-15T23:45:18.950Z,-1.04
2022-12-15T23:47:45.514Z,-1.07
2022-12-15T23:50:12.159Z,-1.09
2022-12-15T23:52:38.695Z,-1.11
2022-12-15T23:55:06.040Z,-1.14
2022-12-15T23:57:34.157Z,-1.10
